Flight Track Log - Related Links

Times and Time Zones

All times are in EDT time to prevent confusion due to time zone crossing. See the N825TD flight status page for this flight to view local times or setup timezone preferences in your user account.

Time Position Orientation Groundspeed Altitude Reporting Facility
EDT Latitude Longitude Course Direction KTS MPH feet Rate Location/Type
Mon 10:46:56 AM 27.8342 -81.9706 170° South 80 92 5,000  Level Miami Center
Mon 10:47:56 AM 27.7883 -81.9639 173° South 149 171 5,000  Level Miami Center
Mon 10:48:56 AM 27.7489 -81.9575 172° South 154 177 5,000 350 Level Miami Center
Mon 10:49:56 AM 27.7139 -81.9489 168° South 140 161 5,700 800 Climbing Miami Center
Mon 10:50:00 AM 27.8037 -81.9937 172° South  Level Estimated
Mon 10:50:56 AM 27.6872 -81.9311 149° Southeast 128 147 6,600  Level Miami Center
Mon 10:51:56 AM 27.6564 -81.9181 159° South 123 142 7,100 200 Climbing Miami Center
Mon 10:52:00 AM 27.7425 -81.9814 170° South  Level FlightAware Approximate
Mon 10:52:56 AM 27.6153 -81.9022 161° South 135 155 7,000  Level Miami Center
Mon 10:53:56 AM 27.5783 -81.8842 157° South 145 167 7,000  Level Miami Center
Mon 10:54:56 AM 27.5414 -81.8686 160° South 145 167 7,000  Level Miami Center
Mon 10:55:56 AM 27.5022 -81.8528 160° South 145 167 7,000  Level Miami Center
Mon 10:56:56 AM 27.4653 -81.8347 157° South 145 167 7,000  Level Miami Center
Mon 10:57:56 AM 27.4303 -81.8192 158° South 145 167 7,000  Level Miami Center
Mon 10:58:56 AM 27.3933 -81.8036 160° South 145 167 7,000  Level Miami Center
Mon 10:59:56 AM 27.3564 -81.7858 157° South 145 167 7,000  Level Miami Center
Mon 11:00:56 AM 27.3194 -81.7700 159° South 145 167 7,000  Level Miami Center
Mon 11:01:56 AM 27.2803 -81.7522 158° South 145 167 7,000  Level Miami Center
Mon 11:02:56 AM 27.2456 -81.7344 156° South 145 167 7,000  Level Miami Center
Mon 11:03:56 AM 27.2083 -81.7186 159° South 145 167 7,000  Level Miami Center
Mon 11:04:56 AM 27.1714 -81.7031 159° South 145 167 7,000  Level Miami Center
Mon 11:05:56 AM 27.1344 -81.6853 157° South 145 167 7,000  Level Miami Center
Mon 11:06:56 AM 27.0975 -81.6675 157° South 145 167 7,000  Level Miami Center
Mon 11:07:56 AM 27.0603 -81.6519 160° South 145 167 7,000  Level Miami Center
Mon 11:08:56 AM 27.0189 -81.6433 169° South 145 167 7,000  Level Miami Center
Mon 11:10:08 AM 26.9831 -81.6511 191° South 140 161 7,000  Level Miami Center
Mon 11:11:08 AM 26.9389 -81.6586 189° South 146 168 7,000  Level Miami Center
Mon 11:12:08 AM 26.8992 -81.6639 187° South 141 162 7,000  Level Miami Center
Mon 11:13:08 AM 26.8594 -81.6692 187° South 148 170 7,000  Level Miami Center
Mon 11:14:08 AM 26.8172 -81.6769 189° South 142 163 7,000  Level Miami Center
Mon 11:16:00 AM 26.7460 -81.6845 185° South  Level FlightAware Approximate
Mon 11:23:00 AM 26.4802 -81.7191 186° South  Level FlightAware Approximate
Mon 11:24:00 AM 26.4421 -81.7239 186° South  Level FlightAware Approximate
Mon 11:25:00 AM 26.4040 -81.7287 186° South  Level FlightAware Approximate
Mon 11:26:00 AM 26.3659 -81.7335 186° South  Level FlightAware Approximate
Mon 11:27:00 AM 26.3278 -81.7382 186° South  Level FlightAware Approximate
Mon 11:28:00 AM 26.2897 -81.7430 186° South  Level FlightAware Approximate
Mon 11:29:00 AM 26.2516 -81.7477 186° South  Level FlightAware Approximate
Mon 11:30:00 AM 26.2137 -81.7539 190° South  Level FlightAware Approximate
Mon 11:31:00 AM 26.1759 -81.7615 190° South  Level FlightAware Approximate
Mon 11:32:00 AM 26.1500 -81.7667 190° South  Level FlightAware Approximate
Mon 11:33:00 AM 26.1524 -81.7756 190° South  Level Estimated
Mon 11:34:00 AM 26.1524 -81.7756 190° South  Level Estimated
Mon 11:35:00 AM 26.1524 -81.7756 190° South  Level Estimated
Mon 11:36:00 AM 26.1524 -81.7756 190° South  Level Estimated
Mon 11:37:00 AM 26.1524 -81.7756 190° South  Level Estimated
Mon 11:38:00 AM 26.1524 -81.7756 190° South  Level Estimated
Mon 11:39:00 AM 26.1524 -81.7756 190° South  Level Estimated
Mon 11:40:00 AM 26.1524 -81.7756 190° South  Level Estimated
Mon 11:41:00 AM 26.1524 -81.7756 190° South  Level Estimated
Mon 11:42:00 AM 26.1524 -81.7756 190° South  Level Estimated
Mon 11:43:00 AM 26.1524 -81.7756 190° South  Level Estimated
Mon 11:44:00 AM 26.1524 -81.7756 190° South  Level Estimated
Mon 11:45:00 AM 26.1524 -81.7756 190° South  Level Estimated
Mon 11:46:00 AM 26.1524 -81.7756 190° South  Level Estimated

Login

Don't have an account? Register now (free) for customized features, flight alerts, and more!